Aeroporto :
LOGIN :

Iscrizione | Disclaimer

   EN    FR    IT 

 










Sommario :    VFR   VFR Marginale   IFR   IFR Intensivo   IFR Molto Intensivo
Visibilità : 
Base nubi : 
>= 8 km
>= 3000ft
5 / 8 km
1000 / 3000 ft
1500m / 5 km
500 / 1000 ft
800 / 1500m
200 / 500 ft
< 800m
< 200 ft
Simboli :   Temporali  Nebbia  Neve Forte  Precipitazioni Forti  Vento > 20 kt
SIGMETs :   Varie  Temporali  Ghiacco  Turbolenza  Onda orograficha  Ceneri Vulcaniche






- Altitudine del aeroporto : 404 ft
- Codice IATA : WRO


EPWR - Wroclaw

ULTIMO METAR :
  • 221030Z 29016KT 9999 FEW006 BKN009 01/00 Q1029

METARs OBSOLETI :
  • 221000Z 28013KT 5000 -DZ BR SCT004 BKN008 01/00 Q1030
  • 220930Z 29013KT 4500 -DZ SCT003 BKN005 BKN012 00/M01 Q1030
  • 220900Z 29019KT 9999 -DZ SCT004 BKN011 00/M02 Q1030
  • 220830Z 29016KT 9999 FEW006 OVC011 01/M02 Q1030
  • 220800Z 28018KT 9999 SCT005 BKN010 00/M02 Q1029

TAF AMD TAF EPWR
Valido dal 22 a 09 ore il 23 a 09 ore UTC


220927Z 2209/2309 27015KT 5000 BR BKN010
TEMPO 2209/2221 29015G25KT 2500 -DZ BR BKN004
PROB30
TEMPO 2212/2306 1200 DZ BR BKN001



MetMap, La meteo Aeronautica in un colpo d'occhio ! - Copyright ORBIFLY Dicembre 2007 - Disclaimer

ORBIFLY MET'MAP TEAM :

Programmazione e sviluppo : Alexandra Zaïnal
Concezione : Baudouin d'Aumeries
Aiuto per la programmazione : Marc-Olivier Méhu
Supporto tecnico e logistico : Manuel Goepfert
Aiuto per la traduzione : Arnaldo La Scala

Contatto : metmap@orbifly.com




FONTI E CREDITI :

   NOAA